sensor_id;sensor_type;location;lat;lon;timestamp;P1;durP1;ratioP1;P2;durP2;ratioP2
71288;SDS011;59068;52.502;9.860;2022-08-21T00:01:50;2.30;;;1.40;;
71288;SDS011;59068;52.502;9.860;2022-08-21T00:04:16;1.97;;;1.20;;
71288;SDS011;59068;52.502;9.860;2022-08-21T00:06:41;3.67;;;1.30;;
71288;SDS011;59068;52.502;9.860;2022-08-21T00:09:08;3.50;;;1.50;;
71288;SDS011;59068;52.502;9.860;2022-08-21T00:11:34;3.70;;;1.70;;
71288;SDS011;59068;52.502;9.860;2022-08-21T00:14:02;2.77;;;1.80;;
71288;SDS011;59068;52.502;9.860;2022-08-21T00:16:28;2.93;;;1.43;;
71288;SDS011;59068;52.502;9.860;2022-08-21T00:18:54;2.07;;;1.50;;
71288;SDS011;59068;52.502;9.860;2022-08-21T00:21:19;3.20;;;1.50;;
71288;SDS011;59068;52.502;9.860;2022-08-21T00:23:44;2.33;;;2.00;;
71288;SDS011;59068;52.502;9.860;2022-08-21T00:26:10;3.60;;;1.30;;
71288;SDS011;59068;52.502;9.860;2022-08-21T00:28:35;2.87;;;1.57;;
71288;SDS011;59068;52.502;9.860;2022-08-21T00:31:01;3.33;;;1.70;;
71288;SDS011;59068;52.502;9.860;2022-08-21T00:33:29;3.63;;;1.50;;
71288;SDS011;59068;52.502;9.860;2022-08-21T00:35:55;3.53;;;1.70;;
71288;SDS011;59068;52.502;9.860;2022-08-21T00:38:20;3.60;;;1.47;;
71288;SDS011;59068;52.502;9.860;2022-08-21T00:40:47;5.03;;;1.90;;
71288;SDS011;59068;52.502;9.860;2022-08-21T00:43:16;2.53;;;1.33;;
71288;SDS011;59068;52.502;9.860;2022-08-21T00:45:52;2.73;;;1.60;;
71288;SDS011;59068;52.502;9.860;2022-08-21T00:48:18;1.90;;;1.47;;
71288;SDS011;59068;52.502;9.860;2022-08-21T00:53:27;4.43;;;1.93;;
71288;SDS011;59068;52.502;9.860;2022-08-21T00:55:53;2.67;;;2.00;;
71288;SDS011;59068;52.502;9.860;2022-08-21T00:58:19;3.27;;;1.60;;
71288;SDS011;59068;52.502;9.860;2022-08-21T01:00:46;2.67;;;1.43;;
71288;SDS011;59068;52.502;9.860;2022-08-21T01:03:14;2.20;;;1.60;;
71288;SDS011;59068;52.502;9.860;2022-08-21T01:05:42;2.80;;;1.57;;
71288;SDS011;59068;52.502;9.860;2022-08-21T01:08:08;3.37;;;1.60;;
71288;SDS011;59068;52.502;9.860;2022-08-21T01:10:35;3.13;;;1.70;;
71288;SDS011;59068;52.502;9.860;2022-08-21T01:13:01;2.77;;;1.60;;
71288;SDS011;59068;52.502;9.860;2022-08-21T01:15:30;2.73;;;1.30;;
71288;SDS011;59068;52.502;9.860;2022-08-21T01:17:57;2.70;;;1.40;;
71288;SDS011;59068;52.502;9.860;2022-08-21T01:20:22;1.93;;;1.30;;
71288;SDS011;59068;52.502;9.860;2022-08-21T01:22:48;1.90;;;1.57;;
71288;SDS011;59068;52.502;9.860;2022-08-21T01:25:14;1.40;;;1.20;;
71288;SDS011;59068;52.502;9.860;2022-08-21T01:27:40;2.83;;;1.60;;
71288;SDS011;59068;52.502;9.860;2022-08-21T01:30:17;2.67;;;1.30;;
71288;SDS011;59068;52.502;9.860;2022-08-21T01:32:45;1.90;;;1.53;;
71288;SDS011;59068;52.502;9.860;2022-08-21T01:35:12;1.97;;;1.20;;
71288;SDS011;59068;52.502;9.860;2022-08-21T01:37:38;1.40;;;1.20;;
71288;SDS011;59068;52.502;9.860;2022-08-21T01:40:04;4.40;;;1.70;;
71288;SDS011;59068;52.502;9.860;2022-08-21T01:42:30;2.10;;;1.60;;
71288;SDS011;59068;52.502;9.860;2022-08-21T01:44:56;2.63;;;1.30;;
71288;SDS011;59068;52.502;9.860;2022-08-21T01:47:21;3.17;;;1.30;;
71288;SDS011;59068;52.502;9.860;2022-08-21T01:49:47;3.63;;;1.63;;
71288;SDS011;59068;52.502;9.860;2022-08-21T01:52:12;1.30;;;1.20;;
71288;SDS011;59068;52.502;9.860;2022-08-21T01:54:38;1.93;;;1.20;;
71288;SDS011;59068;52.502;9.860;2022-08-21T01:57:03;3.17;;;1.27;;
71288;SDS011;59068;52.502;9.860;2022-08-21T01:59:29;1.83;;;1.33;;
71288;SDS011;59068;52.502;9.860;2022-08-21T02:01:54;2.20;;;1.30;;
71288;SDS011;59068;52.502;9.860;2022-08-21T02:04:20;2.80;;;1.50;;
71288;SDS011;59068;52.502;9.860;2022-08-21T02:06:46;3.33;;;1.40;;
71288;SDS011;59068;52.502;9.860;2022-08-21T02:09:12;2.13;;;1.30;;
71288;SDS011;59068;52.502;9.860;2022-08-21T02:11:39;2.03;;;1.30;;
71288;SDS011;59068;52.502;9.860;2022-08-21T02:14:06;2.73;;;1.27;;
71288;SDS011;59068;52.502;9.860;2022-08-21T02:16:32;2.20;;;1.40;;
71288;SDS011;59068;52.502;9.860;2022-08-21T02:18:58;2.00;;;1.20;;
71288;SDS011;59068;52.502;9.860;2022-08-21T02:21:23;2.57;;;1.30;;
71288;SDS011;59068;52.502;9.860;2022-08-21T02:23:49;1.40;;;1.20;;
71288;SDS011;59068;52.502;9.860;2022-08-21T02:26:14;3.40;;;1.27;;
71288;SDS011;59068;52.502;9.860;2022-08-21T02:28:39;1.93;;;1.23;;
71288;SDS011;59068;52.502;9.860;2022-08-21T02:31:06;1.70;;;1.30;;
71288;SDS011;59068;52.502;9.860;2022-08-21T02:33:32;1.53;;;1.37;;
71288;SDS011;59068;52.502;9.860;2022-08-21T02:35:58;1.10;;;1.00;;
71288;SDS011;59068;52.502;9.860;2022-08-21T02:38:25;2.33;;;1.37;;
71288;SDS011;59068;52.502;9.860;2022-08-21T02:40:52;1.90;;;1.23;;
71288;SDS011;59068;52.502;9.860;2022-08-21T02:43:18;2.77;;;1.40;;
71288;SDS011;59068;52.502;9.860;2022-08-21T02:45:45;4.70;;;1.50;;
71288;SDS011;59068;52.502;9.860;2022-08-21T02:48:13;2.97;;;1.30;;
71288;SDS011;59068;52.502;9.860;2022-08-21T02:50:42;2.97;;;1.47;;
71288;SDS011;59068;52.502;9.860;2022-08-21T02:53:17;1.60;;;1.33;;
71288;SDS011;59068;52.502;9.860;2022-08-21T02:55:44;3.20;;;1.33;;
71288;SDS011;59068;52.502;9.860;2022-08-21T02:58:11;1.53;;;1.30;;
71288;SDS011;59068;52.502;9.860;2022-08-21T03:00:37;1.37;;;1.10;;
71288;SDS011;59068;52.502;9.860;2022-08-21T03:03:03;3.00;;;1.20;;
71288;SDS011;59068;52.502;9.860;2022-08-21T03:05:29;3.27;;;1.47;;
71288;SDS011;59068;52.502;9.860;2022-08-21T03:07:58;1.40;;;1.30;;
71288;SDS011;59068;52.502;9.860;2022-08-21T03:10:25;2.10;;;1.40;;
71288;SDS011;59068;52.502;9.860;2022-08-21T03:12:51;2.13;;;1.50;;
71288;SDS011;59068;52.502;9.860;2022-08-21T03:15:19;2.13;;;1.40;;
71288;SDS011;59068;52.502;9.860;2022-08-21T03:17:46;1.37;;;1.27;;
71288;SDS011;59068;52.502;9.860;2022-08-21T03:20:13;2.23;;;1.37;;
71288;SDS011;59068;52.502;9.860;2022-08-21T03:22:40;1.97;;;1.23;;
71288;SDS011;59068;52.502;9.860;2022-08-21T03:25:06;1.63;;;1.27;;
71288;SDS011;59068;52.502;9.860;2022-08-21T03:27:33;4.83;;;1.27;;
71288;SDS011;59068;52.502;9.860;2022-08-21T03:29:59;1.63;;;1.20;;
71288;SDS011;59068;52.502;9.860;2022-08-21T03:32:25;2.57;;;1.10;;
71288;SDS011;59068;52.502;9.860;2022-08-21T03:34:51;2.00;;;1.30;;
71288;SDS011;59068;52.502;9.860;2022-08-21T03:37:16;1.30;;;1.20;;
71288;SDS011;59068;52.502;9.860;2022-08-21T03:39:42;1.93;;;1.20;;
71288;SDS011;59068;52.502;9.860;2022-08-21T03:42:09;2.33;;;1.40;;
71288;SDS011;59068;52.502;9.860;2022-08-21T03:44:36;2.37;;;1.50;;
71288;SDS011;59068;52.502;9.860;2022-08-21T03:47:02;1.83;;;1.30;;
71288;SDS011;59068;52.502;9.860;2022-08-21T03:49:28;2.60;;;1.30;;
71288;SDS011;59068;52.502;9.860;2022-08-21T03:51:53;2.70;;;1.47;;
71288;SDS011;59068;52.502;9.860;2022-08-21T03:54:19;2.37;;;1.60;;
71288;SDS011;59068;52.502;9.860;2022-08-21T03:56:44;1.43;;;1.20;;
71288;SDS011;59068;52.502;9.860;2022-08-21T03:59:10;1.67;;;1.50;;
71288;SDS011;59068;52.502;9.860;2022-08-21T04:01:36;2.53;;;1.10;;
71288;SDS011;59068;52.502;9.860;2022-08-21T04:04:02;3.40;;;1.30;;
71288;SDS011;59068;52.502;9.860;2022-08-21T04:06:28;1.23;;;1.10;;
71288;SDS011;59068;52.502;9.860;2022-08-21T04:08:54;1.30;;;1.20;;
71288;SDS011;59068;52.502;9.860;2022-08-21T04:11:20;1.90;;;1.30;;
71288;SDS011;59068;52.502;9.860;2022-08-21T04:13:45;2.53;;;1.40;;
71288;SDS011;59068;52.502;9.860;2022-08-21T04:16:11;3.03;;;1.50;;
71288;SDS011;59068;52.502;9.860;2022-08-21T04:18:37;1.80;;;1.20;;
71288;SDS011;59068;52.502;9.860;2022-08-21T04:21:03;2.40;;;1.37;;
71288;SDS011;59068;52.502;9.860;2022-08-21T04:23:29;4.10;;;1.30;;
71288;SDS011;59068;52.502;9.860;2022-08-21T04:25:55;1.83;;;1.40;;
71288;SDS011;59068;52.502;9.860;2022-08-21T04:28:21;3.30;;;1.50;;
71288;SDS011;59068;52.502;9.860;2022-08-21T04:30:48;1.93;;;1.70;;
71288;SDS011;59068;52.502;9.860;2022-08-21T04:33:15;2.20;;;1.50;;
71288;SDS011;59068;52.502;9.860;2022-08-21T04:35:40;2.80;;;1.53;;
71288;SDS011;59068;52.502;9.860;2022-08-21T04:38:07;4.33;;;1.30;;
71288;SDS011;59068;52.502;9.860;2022-08-21T04:40:32;3.43;;;1.77;;
71288;SDS011;59068;52.502;9.860;2022-08-21T04:43:00;2.87;;;1.60;;
71288;SDS011;59068;52.502;9.860;2022-08-21T04:45:29;3.00;;;2.00;;
71288;SDS011;59068;52.502;9.860;2022-08-21T04:47:58;2.17;;;1.50;;
71288;SDS011;59068;52.502;9.860;2022-08-21T04:50:29;2.20;;;1.23;;
71288;SDS011;59068;52.502;9.860;2022-08-21T04:53:16;2.73;;;1.80;;
71288;SDS011;59068;52.502;9.860;2022-08-21T04:55:45;3.10;;;1.90;;
71288;SDS011;59068;52.502;9.860;2022-08-21T04:58:13;2.47;;;1.70;;
71288;SDS011;59068;52.502;9.860;2022-08-21T05:00:43;4.00;;;1.63;;
71288;SDS011;59068;52.502;9.860;2022-08-21T05:03:09;2.47;;;1.57;;
71288;SDS011;59068;52.502;9.860;2022-08-21T05:05:35;1.77;;;1.67;;
71288;SDS011;59068;52.502;9.860;2022-08-21T05:08:01;2.57;;;2.00;;
71288;SDS011;59068;52.502;9.860;2022-08-21T05:10:28;2.97;;;1.87;;
71288;SDS011;59068;52.502;9.860;2022-08-21T05:12:53;2.73;;;1.80;;
71288;SDS011;59068;52.502;9.860;2022-08-21T05:15:19;1.90;;;1.47;;
71288;SDS011;59068;52.502;9.860;2022-08-21T05:17:45;2.50;;;1.60;;
71288;SDS011;59068;52.502;9.860;2022-08-21T05:20:12;3.03;;;1.90;;
71288;SDS011;59068;52.502;9.860;2022-08-21T05:22:38;2.67;;;1.80;;
71288;SDS011;59068;52.502;9.860;2022-08-21T05:25:04;2.30;;;1.90;;
71288;SDS011;59068;52.502;9.860;2022-08-21T05:27:31;2.83;;;2.00;;
71288;SDS011;59068;52.502;9.860;2022-08-21T05:29:56;3.60;;;2.20;;
71288;SDS011;59068;52.502;9.860;2022-08-21T05:32:22;3.77;;;1.77;;
71288;SDS011;59068;52.502;9.860;2022-08-21T05:34:48;4.17;;;2.23;;
71288;SDS011;59068;52.502;9.860;2022-08-21T05:37:13;3.43;;;2.43;;
71288;SDS011;59068;52.502;9.860;2022-08-21T05:39:39;4.00;;;2.10;;
71288;SDS011;59068;52.502;9.860;2022-08-21T05:42:04;3.17;;;2.20;;
71288;SDS011;59068;52.502;9.860;2022-08-21T05:44:30;4.83;;;2.57;;
71288;SDS011;59068;52.502;9.860;2022-08-21T05:47:01;9.63;;;3.03;;
71288;SDS011;59068;52.502;9.860;2022-08-21T05:49:28;5.40;;;2.90;;
71288;SDS011;59068;52.502;9.860;2022-08-21T05:51:53;5.80;;;2.40;;
71288;SDS011;59068;52.502;9.860;2022-08-21T05:54:18;6.87;;;2.80;;
71288;SDS011;59068;52.502;9.860;2022-08-21T05:56:44;3.13;;;2.10;;
71288;SDS011;59068;52.502;9.860;2022-08-21T05:59:09;5.10;;;2.50;;
71288;SDS011;59068;52.502;9.860;2022-08-21T06:01:35;4.17;;;2.00;;
71288;SDS011;59068;52.502;9.860;2022-08-21T06:04:01;4.83;;;2.00;;
71288;SDS011;59068;52.502;9.860;2022-08-21T06:06:26;4.17;;;2.30;;
71288;SDS011;59068;52.502;9.860;2022-08-21T06:08:52;4.80;;;2.20;;
71288;SDS011;59068;52.502;9.860;2022-08-21T06:11:18;3.17;;;2.00;;
71288;SDS011;59068;52.502;9.860;2022-08-21T06:13:43;3.97;;;2.10;;
71288;SDS011;59068;52.502;9.860;2022-08-21T06:16:09;4.30;;;2.37;;
71288;SDS011;59068;52.502;9.860;2022-08-21T06:18:37;4.97;;;2.80;;
71288;SDS011;59068;52.502;9.860;2022-08-21T06:21:04;3.97;;;2.20;;
71288;SDS011;59068;52.502;9.860;2022-08-21T06:23:30;3.93;;;2.60;;
71288;SDS011;59068;52.502;9.860;2022-08-21T06:25:55;6.77;;;2.70;;
71288;SDS011;59068;52.502;9.860;2022-08-21T06:28:21;7.30;;;2.50;;
71288;SDS011;59068;52.502;9.860;2022-08-21T06:30:46;4.27;;;2.40;;
71288;SDS011;59068;52.502;9.860;2022-08-21T06:33:12;5.70;;;2.93;;
71288;SDS011;59068;52.502;9.860;2022-08-21T06:35:37;5.20;;;2.40;;
71288;SDS011;59068;52.502;9.860;2022-08-21T06:38:03;7.10;;;2.47;;
71288;SDS011;59068;52.502;9.860;2022-08-21T06:40:29;4.03;;;2.47;;
71288;SDS011;59068;52.502;9.860;2022-08-21T06:42:55;4.00;;;2.40;;
71288;SDS011;59068;52.502;9.860;2022-08-21T06:45:21;4.33;;;2.40;;
71288;SDS011;59068;52.502;9.860;2022-08-21T06:47:47;3.03;;;2.40;;
71288;SDS011;59068;52.502;9.860;2022-08-21T06:50:12;5.60;;;2.70;;
71288;SDS011;59068;52.502;9.860;2022-08-21T06:52:38;4.03;;;2.37;;
71288;SDS011;59068;52.502;9.860;2022-08-21T06:55:04;3.23;;;2.50;;
71288;SDS011;59068;52.502;9.860;2022-08-21T06:57:30;5.57;;;2.80;;
71288;SDS011;59068;52.502;9.860;2022-08-21T06:59:56;2.87;;;2.50;;
71288;SDS011;59068;52.502;9.860;2022-08-21T07:02:21;5.57;;;3.10;;
71288;SDS011;59068;52.502;9.860;2022-08-21T07:04:47;4.37;;;3.30;;
71288;SDS011;59068;52.502;9.860;2022-08-21T07:07:12;5.50;;;3.70;;
71288;SDS011;59068;52.502;9.860;2022-08-21T07:09:37;7.60;;;3.33;;
71288;SDS011;59068;52.502;9.860;2022-08-21T07:12:03;7.50;;;3.70;;
71288;SDS011;59068;52.502;9.860;2022-08-21T07:14:28;7.57;;;3.43;;
71288;SDS011;59068;52.502;9.860;2022-08-21T07:16:54;4.23;;;3.20;;
71288;SDS011;59068;52.502;9.860;2022-08-21T07:19:19;4.80;;;3.07;;
71288;SDS011;59068;52.502;9.860;2022-08-21T07:21:45;6.73;;;3.20;;
71288;SDS011;59068;52.502;9.860;2022-08-21T07:24:10;5.37;;;3.33;;
71288;SDS011;59068;52.502;9.860;2022-08-21T07:26:36;5.63;;;2.80;;
71288;SDS011;59068;52.502;9.860;2022-08-21T07:29:01;7.13;;;3.60;;
71288;SDS011;59068;52.502;9.860;2022-08-21T07:31:27;9.17;;;4.00;;
71288;SDS011;59068;52.502;9.860;2022-08-21T07:33:52;8.00;;;2.97;;
71288;SDS011;59068;52.502;9.860;2022-08-21T07:36:18;5.80;;;2.67;;
71288;SDS011;59068;52.502;9.860;2022-08-21T07:38:43;4.53;;;2.50;;
71288;SDS011;59068;52.502;9.860;2022-08-21T07:41:12;4.37;;;3.00;;
71288;SDS011;59068;52.502;9.860;2022-08-21T07:43:40;4.73;;;3.30;;
71288;SDS011;59068;52.502;9.860;2022-08-21T07:46:05;5.43;;;2.70;;
71288;SDS011;59068;52.502;9.860;2022-08-21T07:48:30;4.57;;;2.60;;
71288;SDS011;59068;52.502;9.860;2022-08-21T07:51:05;5.33;;;2.80;;
71288;SDS011;59068;52.502;9.860;2022-08-21T07:53:32;5.07;;;2.60;;
71288;SDS011;59068;52.502;9.860;2022-08-21T07:55:59;5.13;;;3.00;;
71288;SDS011;59068;52.502;9.860;2022-08-21T07:58:24;5.33;;;2.13;;
71288;SDS011;59068;52.502;9.860;2022-08-21T08:00:50;5.30;;;2.30;;
71288;SDS011;59068;52.502;9.860;2022-08-21T08:03:15;3.73;;;2.77;;
71288;SDS011;59068;52.502;9.860;2022-08-21T08:05:40;3.87;;;2.40;;
71288;SDS011;59068;52.502;9.860;2022-08-21T08:08:06;4.63;;;2.30;;
71288;SDS011;59068;52.502;9.860;2022-08-21T08:10:31;3.57;;;2.20;;
71288;SDS011;59068;52.502;9.860;2022-08-21T08:12:57;4.27;;;2.10;;
71288;SDS011;59068;52.502;9.860;2022-08-21T08:15:24;4.27;;;2.13;;
71288;SDS011;59068;52.502;9.860;2022-08-21T08:17:50;4.63;;;1.90;;
71288;SDS011;59068;52.502;9.860;2022-08-21T08:20:17;3.47;;;2.07;;
71288;SDS011;59068;52.502;9.860;2022-08-21T08:22:45;5.47;;;2.23;;
71288;SDS011;59068;52.502;9.860;2022-08-21T08:25:12;3.97;;;1.77;;
71288;SDS011;59068;52.502;9.860;2022-08-21T08:27:39;4.90;;;1.80;;
71288;SDS011;59068;52.502;9.860;2022-08-21T08:30:06;4.90;;;1.80;;
71288;SDS011;59068;52.502;9.860;2022-08-21T08:32:35;3.87;;;1.80;;
71288;SDS011;59068;52.502;9.860;2022-08-21T08:35:01;5.17;;;2.07;;
71288;SDS011;59068;52.502;9.860;2022-08-21T08:37:28;2.53;;;1.67;;
71288;SDS011;59068;52.502;9.860;2022-08-21T08:39:53;4.13;;;2.10;;
71288;SDS011;59068;52.502;9.860;2022-08-21T08:42:29;2.63;;;1.70;;
71288;SDS011;59068;52.502;9.860;2022-08-21T08:47:42;3.17;;;1.47;;
71288;SDS011;59068;52.502;9.860;2022-08-21T08:50:25;2.50;;;1.43;;
71288;SDS011;59068;52.502;9.860;2022-08-21T08:53:07;2.80;;;1.37;;
71288;SDS011;59068;52.502;9.860;2022-08-21T08:55:37;3.67;;;1.23;;
71288;SDS011;59068;52.502;9.860;2022-08-21T08:58:06;2.70;;;1.40;;
71288;SDS011;59068;52.502;9.860;2022-08-21T09:00:34;4.20;;;1.43;;
71288;SDS011;59068;52.502;9.860;2022-08-21T09:03:00;3.07;;;1.23;;
71288;SDS011;59068;52.502;9.860;2022-08-21T09:05:29;3.00;;;1.43;;
71288;SDS011;59068;52.502;9.860;2022-08-21T09:11:27;2.63;;;1.30;;
71288;SDS011;59068;52.502;9.860;2022-08-21T09:25:25;2.67;;;1.20;;
71288;SDS011;59068;52.502;9.860;2022-08-21T09:27:53;3.47;;;1.20;;
71288;SDS011;59068;52.502;9.860;2022-08-21T09:30:19;2.93;;;1.40;;
71288;SDS011;59068;52.502;9.860;2022-08-21T09:32:49;2.40;;;1.20;;
71288;SDS011;59068;52.502;9.860;2022-08-21T09:35:16;3.40;;;1.20;;
71288;SDS011;59068;52.502;9.860;2022-08-21T09:38:06;2.00;;;1.17;;
71288;SDS011;59068;52.502;9.860;2022-08-21T09:45:30;2.87;;;1.27;;
71288;SDS011;59068;52.502;9.860;2022-08-21T09:48:07;3.10;;;1.30;;
71288;SDS011;59068;52.502;9.860;2022-08-21T09:51:04;3.20;;;1.27;;
71288;SDS011;59068;52.502;9.860;2022-08-21T09:53:34;3.73;;;1.37;;
71288;SDS011;59068;52.502;9.860;2022-08-21T09:56:02;3.43;;;1.43;;
71288;SDS011;59068;52.502;9.860;2022-08-21T09:58:48;3.27;;;1.63;;
71288;SDS011;59068;52.502;9.860;2022-08-21T10:01:16;3.20;;;1.40;;
71288;SDS011;59068;52.502;9.860;2022-08-21T10:03:46;3.00;;;1.40;;
71288;SDS011;59068;52.502;9.860;2022-08-21T10:06:26;4.87;;;1.60;;
71288;SDS011;59068;52.502;9.860;2022-08-21T10:09:03;2.27;;;1.30;;
71288;SDS011;59068;52.502;9.860;2022-08-21T10:11:29;4.50;;;1.47;;
71288;SDS011;59068;52.502;9.860;2022-08-21T10:19:11;4.60;;;1.70;;
71288;SDS011;59068;52.502;9.860;2022-08-21T10:21:43;4.20;;;1.73;;
71288;SDS011;59068;52.502;9.860;2022-08-21T10:24:40;4.40;;;1.70;;
71288;SDS011;59068;52.502;9.860;2022-08-21T10:30:10;3.30;;;1.27;;
71288;SDS011;59068;52.502;9.860;2022-08-21T10:35:47;4.80;;;1.53;;
71288;SDS011;59068;52.502;9.860;2022-08-21T10:46:15;3.93;;;1.40;;
71288;SDS011;59068;52.502;9.860;2022-08-21T10:48:57;3.77;;;1.60;;
71288;SDS011;59068;52.502;9.860;2022-08-21T10:56:24;5.23;;;2.27;;
71288;SDS011;59068;52.502;9.860;2022-08-21T11:07:00;2.07;;;1.40;;
71288;SDS011;59068;52.502;9.860;2022-08-21T11:09:40;2.80;;;1.90;;
71288;SDS011;59068;52.502;9.860;2022-08-21T11:12:12;5.17;;;2.20;;
71288;SDS011;59068;52.502;9.860;2022-08-21T11:14:58;2.40;;;1.30;;
71288;SDS011;59068;52.502;9.860;2022-08-21T11:17:32;3.00;;;1.33;;
71288;SDS011;59068;52.502;9.860;2022-08-21T11:20:03;5.30;;;3.00;;
71288;SDS011;59068;52.502;9.860;2022-08-21T11:22:35;2.80;;;1.40;;
71288;SDS011;59068;52.502;9.860;2022-08-21T11:27:45;4.27;;;1.80;;
71288;SDS011;59068;52.502;9.860;2022-08-21T11:30:14;1.77;;;1.20;;
71288;SDS011;59068;52.502;9.860;2022-08-21T11:35:47;5.47;;;1.83;;
71288;SDS011;59068;52.502;9.860;2022-08-21T11:38:27;3.30;;;1.37;;
71288;SDS011;59068;52.502;9.860;2022-08-21T11:43:48;2.97;;;1.30;;
71288;SDS011;59068;52.502;9.860;2022-08-21T11:51:28;3.70;;;1.93;;
71288;SDS011;59068;52.502;9.860;2022-08-21T11:54:07;4.37;;;1.50;;
71288;SDS011;59068;52.502;9.860;2022-08-21T11:56:39;3.03;;;1.30;;
71288;SDS011;59068;52.502;9.860;2022-08-21T11:59:11;2.97;;;1.33;;
71288;SDS011;59068;52.502;9.860;2022-08-21T12:01:58;2.57;;;1.30;;
71288;SDS011;59068;52.502;9.860;2022-08-21T12:04:28;3.27;;;1.40;;
71288;SDS011;59068;52.502;9.860;2022-08-21T12:06:56;3.97;;;1.30;;
71288;SDS011;59068;52.502;9.860;2022-08-21T12:09:37;3.37;;;1.17;;
71288;SDS011;59068;52.502;9.860;2022-08-21T12:12:11;4.97;;;1.77;;
71288;SDS011;59068;52.502;9.860;2022-08-21T12:14:42;2.30;;;1.60;;
71288;SDS011;59068;52.502;9.860;2022-08-21T12:17:16;5.00;;;1.80;;
71288;SDS011;59068;52.502;9.860;2022-08-21T12:19:56;5.20;;;2.17;;
71288;SDS011;59068;52.502;9.860;2022-08-21T12:22:22;3.43;;;1.77;;
71288;SDS011;59068;52.502;9.860;2022-08-21T12:25:10;2.33;;;1.60;;
71288;SDS011;59068;52.502;9.860;2022-08-21T12:30:20;1.67;;;0.77;;
71288;SDS011;59068;52.502;9.860;2022-08-21T12:32:59;1.57;;;1.10;;
71288;SDS011;59068;52.502;9.860;2022-08-21T12:35:30;1.43;;;1.10;;
71288;SDS011;59068;52.502;9.860;2022-08-21T12:46:03;1.73;;;1.20;;
71288;SDS011;59068;52.502;9.860;2022-08-21T12:51:14;4.00;;;1.20;;
71288;SDS011;59068;52.502;9.860;2022-08-21T12:56:16;2.90;;;0.97;;
71288;SDS011;59068;52.502;9.860;2022-08-21T12:58:46;3.90;;;1.10;;
71288;SDS011;59068;52.502;9.860;2022-08-21T13:03:49;1.50;;;1.00;;
71288;SDS011;59068;52.502;9.860;2022-08-21T13:06:17;2.73;;;1.10;;
71288;SDS011;59068;52.502;9.860;2022-08-21T13:08:44;2.03;;;0.90;;
71288;SDS011;59068;52.502;9.860;2022-08-21T13:11:11;1.63;;;1.07;;
71288;SDS011;59068;52.502;9.860;2022-08-21T13:13:40;1.67;;;0.90;;
71288;SDS011;59068;52.502;9.860;2022-08-21T13:16:06;2.10;;;1.20;;
71288;SDS011;59068;52.502;9.860;2022-08-21T13:18:33;2.70;;;1.00;;
71288;SDS011;59068;52.502;9.860;2022-08-21T13:21:04;1.53;;;1.10;;
71288;SDS011;59068;52.502;9.860;2022-08-21T13:23:37;2.47;;;1.23;;
71288;SDS011;59068;52.502;9.860;2022-08-21T13:26:16;3.43;;;1.33;;
71288;SDS011;59068;52.502;9.860;2022-08-21T13:28:44;3.93;;;1.47;;
71288;SDS011;59068;52.502;9.860;2022-08-21T13:31:12;1.97;;;1.17;;
71288;SDS011;59068;52.502;9.860;2022-08-21T13:33:42;2.10;;;1.17;;
71288;SDS011;59068;52.502;9.860;2022-08-21T13:36:11;3.87;;;1.83;;
71288;SDS011;59068;52.502;9.860;2022-08-21T13:38:42;2.63;;;1.03;;
71288;SDS011;59068;52.502;9.860;2022-08-21T13:41:16;2.90;;;1.20;;
71288;SDS011;59068;52.502;9.860;2022-08-21T13:43:48;2.00;;;1.07;;
71288;SDS011;59068;52.502;9.860;2022-08-21T13:46:16;1.90;;;1.00;;
71288;SDS011;59068;52.502;9.860;2022-08-21T13:48:42;1.57;;;0.93;;
71288;SDS011;59068;52.502;9.860;2022-08-21T13:51:08;1.67;;;1.20;;
71288;SDS011;59068;52.502;9.860;2022-08-21T13:53:36;2.20;;;1.07;;
71288;SDS011;59068;52.502;9.860;2022-08-21T13:56:10;2.33;;;0.90;;
71288;SDS011;59068;52.502;9.860;2022-08-21T13:58:47;4.07;;;1.30;;
71288;SDS011;59068;52.502;9.860;2022-08-21T14:01:17;2.33;;;0.80;;
71288;SDS011;59068;52.502;9.860;2022-08-21T14:03:44;3.53;;;1.20;;
71288;SDS011;59068;52.502;9.860;2022-08-21T14:06:13;1.67;;;1.07;;
71288;SDS011;59068;52.502;9.860;2022-08-21T14:08:41;2.10;;;1.10;;
71288;SDS011;59068;52.502;9.860;2022-08-21T14:11:13;1.33;;;0.87;;
71288;SDS011;59068;52.502;9.860;2022-08-21T14:13:43;4.07;;;1.10;;
71288;SDS011;59068;52.502;9.860;2022-08-21T14:21:48;1.87;;;1.00;;
71288;SDS011;59068;52.502;9.860;2022-08-21T14:24:14;1.90;;;0.90;;
71288;SDS011;59068;52.502;9.860;2022-08-21T14:27:04;2.07;;;1.10;;
71288;SDS011;59068;52.502;9.860;2022-08-21T14:29:34;2.87;;;1.10;;
71288;SDS011;59068;52.502;9.860;2022-08-21T14:32:08;1.70;;;0.87;;
71288;SDS011;59068;52.502;9.860;2022-08-21T14:34:35;1.20;;;1.03;;
71288;SDS011;59068;52.502;9.860;2022-08-21T14:37:00;2.37;;;1.17;;
71288;SDS011;59068;52.502;9.860;2022-08-21T14:39:25;1.90;;;1.00;;
71288;SDS011;59068;52.502;9.860;2022-08-21T14:41:51;2.67;;;1.00;;
71288;SDS011;59068;52.502;9.860;2022-08-21T14:44:17;2.90;;;1.27;;
71288;SDS011;59068;52.502;9.860;2022-08-21T14:46:44;3.93;;;1.00;;
71288;SDS011;59068;52.502;9.860;2022-08-21T14:49:10;3.27;;;1.03;;
71288;SDS011;59068;52.502;9.860;2022-08-21T14:51:36;1.70;;;1.00;;
71288;SDS011;59068;52.502;9.860;2022-08-21T14:54:01;1.90;;;1.10;;
71288;SDS011;59068;52.502;9.860;2022-08-21T14:56:27;1.63;;;1.00;;
71288;SDS011;59068;52.502;9.860;2022-08-21T14:58:52;2.00;;;1.30;;
71288;SDS011;59068;52.502;9.860;2022-08-21T15:01:19;1.60;;;1.10;;
71288;SDS011;59068;52.502;9.860;2022-08-21T15:03:46;3.03;;;1.33;;
71288;SDS011;59068;52.502;9.860;2022-08-21T15:06:13;3.00;;;1.20;;
71288;SDS011;59068;52.502;9.860;2022-08-21T15:08:39;2.27;;;1.30;;
71288;SDS011;59068;52.502;9.860;2022-08-21T15:11:05;1.97;;;1.40;;
71288;SDS011;59068;52.502;9.860;2022-08-21T15:13:31;2.73;;;1.40;;
71288;SDS011;59068;52.502;9.860;2022-08-21T15:15:57;2.57;;;1.17;;
71288;SDS011;59068;52.502;9.860;2022-08-21T15:18:24;1.90;;;1.50;;
71288;SDS011;59068;52.502;9.860;2022-08-21T15:20:51;2.97;;;1.50;;
71288;SDS011;59068;52.502;9.860;2022-08-21T15:23:17;1.57;;;1.30;;
71288;SDS011;59068;52.502;9.860;2022-08-21T15:25:43;3.30;;;1.43;;
71288;SDS011;59068;52.502;9.860;2022-08-21T15:28:10;3.20;;;1.40;;
71288;SDS011;59068;52.502;9.860;2022-08-21T15:30:36;2.90;;;1.30;;
71288;SDS011;59068;52.502;9.860;2022-08-21T15:33:03;2.07;;;1.23;;
71288;SDS011;59068;52.502;9.860;2022-08-21T15:35:29;2.90;;;1.43;;
71288;SDS011;59068;52.502;9.860;2022-08-21T15:37:55;2.47;;;1.20;;
71288;SDS011;59068;52.502;9.860;2022-08-21T15:40:21;1.87;;;1.03;;
71288;SDS011;59068;52.502;9.860;2022-08-21T15:42:47;1.23;;;1.13;;
71288;SDS011;59068;52.502;9.860;2022-08-21T15:45:12;4.23;;;1.77;;
71288;SDS011;59068;52.502;9.860;2022-08-21T15:47:38;1.63;;;1.30;;
71288;SDS011;59068;52.502;9.860;2022-08-21T15:50:08;3.37;;;1.27;;
71288;SDS011;59068;52.502;9.860;2022-08-21T15:52:34;2.43;;;1.20;;
71288;SDS011;59068;52.502;9.860;2022-08-21T15:55:00;1.63;;;1.37;;
71288;SDS011;59068;52.502;9.860;2022-08-21T15:57:25;2.37;;;1.30;;
71288;SDS011;59068;52.502;9.860;2022-08-21T15:59:53;4.87;;;4.47;;
71288;SDS011;59068;52.502;9.860;2022-08-21T16:02:24;5.40;;;4.90;;
71288;SDS011;59068;52.502;9.860;2022-08-21T16:04:51;4.27;;;3.77;;
71288;SDS011;59068;52.502;9.860;2022-08-21T16:07:17;6.90;;;6.20;;
71288;SDS011;59068;52.502;9.860;2022-08-21T16:09:43;3.00;;;1.70;;
71288;SDS011;59068;52.502;9.860;2022-08-21T16:12:09;4.60;;;3.93;;
71288;SDS011;59068;52.502;9.860;2022-08-21T16:14:38;2.33;;;1.63;;
71288;SDS011;59068;52.502;9.860;2022-08-21T16:17:07;3.07;;;1.27;;
71288;SDS011;59068;52.502;9.860;2022-08-21T16:19:33;1.67;;;1.00;;
71288;SDS011;59068;52.502;9.860;2022-08-21T16:21:59;2.20;;;1.40;;
71288;SDS011;59068;52.502;9.860;2022-08-21T16:24:24;3.40;;;1.30;;
71288;SDS011;59068;52.502;9.860;2022-08-21T16:26:50;1.50;;;1.20;;
71288;SDS011;59068;52.502;9.860;2022-08-21T16:29:16;2.13;;;1.40;;